Time;durP1;ratioP1;P1;durP2;ratioP2;P2;SDS_P1;SDS_P2;PMS_P1;PMS_P2;Temp;Humidity;BMP_temperature;BMP_pressure;BME280_temperature;BME280_humidity;BME280_pressure;Samples;Min_cycle;Max_cycle;Signal;HPM_P1;HPM_P2
2022/05/03 00:02:48;;;;;;;3.00;2.30;;;;;;;;;;6168744;28;20827;-69
2022/05/03 00:06:13;;;;;;;2.60;2.13;;;;;;;;;;6171600;28;20229;-69
2022/05/03 00:09:38;;;;;;;3.10;2.47;;;;;;;;;;6175305;28;20979;-68
2022/05/03 00:13:02;;;;;;;3.03;2.83;;;;;;;;;;6174256;28;20359;-68
2022/05/03 00:16:23;;;;;;;3.93;2.33;;;;;;;;;;6174247;28;20533;-68
2022/05/03 00:19:44;;;;;;;3.00;2.47;;;;;;;;;;6172801;28;20316;-69
2022/05/03 00:23:05;;;;;;;3.57;3.27;;;;;;;;;;6147452;28;20241;-69
2022/05/03 00:26:27;;;;;;;2.40;2.20;;;;;;;;;;6172349;28;20234;-69
2022/05/03 00:29:50;;;;;;;6.33;3.07;;;;;;;;;;6170846;28;20550;-69
2022/05/03 00:33:11;;;;;;;2.70;2.50;;;;;;;;;;6168020;28;20287;-68
2022/05/03 00:36:31;;;;;;;3.53;3.00;;;;;;;;;;6171760;28;20238;-68
2022/05/03 00:39:52;;;;;;;3.93;2.77;;;;;;;;;;6172408;28;20651;-68
2022/05/03 00:43:15;;;;;;;2.97;2.33;;;;;;;;;;6169900;28;20549;-68
2022/05/03 00:46:38;;;;;;;3.07;2.77;;;;;;;;;;6174001;28;20253;-68
2022/05/03 00:50:03;;;;;;;4.80;3.00;;;;;;;;;;6175038;28;20333;-68
2022/05/03 00:53:27;;;;;;;2.53;2.33;;;;;;;;;;6174634;28;20241;-68
2022/05/03 00:56:53;;;;;;;6.53;3.07;;;;;;;;;;6179023;28;20334;-68
2022/05/03 01:00:15;;;;;;;3.00;2.70;;;;;;;;;;6174049;28;20633;-67
2022/05/03 01:03:41;;;;;;;3.13;2.50;;;;;;;;;;6168261;28;20246;-69
2022/05/03 01:07:10;;;;;;;2.60;2.40;;;;;;;;;;6168459;28;20248;-69
2022/05/03 01:10:33;;;;;;;2.90;2.40;;;;;;;;;;6172079;28;20258;-68
2022/05/03 01:13:54;;;;;;;6.30;3.20;;;;;;;;;;6178157;28;20261;-69
2022/05/03 01:17:15;;;;;;;3.57;2.67;;;;;;;;;;6175953;28;20225;-69
2022/05/03 01:20:41;;;;;;;3.13;2.93;;;;;;;;;;6176696;28;20230;-68
2022/05/03 01:24:16;;;;;;;4.60;3.30;;;;;;;;;;6175093;28;20769;-69
2022/05/03 01:27:51;;;;;;;3.73;3.20;;;;;;;;;;6173291;28;20226;-69
2022/05/03 01:31:14;;;;;;;4.23;3.90;;;;;;;;;;6168645;28;20226;-68
2022/05/03 01:34:35;;;;;;;4.33;3.87;;;;;;;;;;6179200;28;20242;-69
2022/05/03 01:38:06;;;;;;;4.57;4.10;;;;;;;;;;6173757;28;20234;-68
2022/05/03 01:41:29;;;;;;;4.53;4.13;;;;;;;;;;6175491;28;20237;-69
2022/05/03 01:44:54;;;;;;;4.40;4.00;;;;;;;;;;6177442;28;20242;-68
2022/05/03 01:48:25;;;;;;;3.87;3.33;;;;;;;;;;6176917;28;20237;-68
2022/05/03 01:51:58;;;;;;;4.20;3.90;;;;;;;;;;6173804;28;20297;-68
2022/05/03 01:55:27;;;;;;;4.10;3.80;;;;;;;;;;6173789;28;20222;-69
2022/05/03 01:59:02;;;;;;;6.20;4.07;;;;;;;;;;6174346;28;20567;-68
2022/05/03 02:02:27;;;;;;;5.87;3.60;;;;;;;;;;6159271;28;20274;-69
2022/05/03 02:05:59;;;;;;;4.60;4.20;;;;;;;;;;6176715;28;20619;-66
2022/05/03 02:09:22;;;;;;;4.20;3.90;;;;;;;;;;6174763;28;20225;-68
2022/05/03 02:12:44;;;;;;;7.53;5.37;;;;;;;;;;6175546;28;20230;-69
2022/05/03 02:16:08;;;;;;;5.70;5.10;;;;;;;;;;6175005;28;20230;-68
2022/05/03 02:19:35;;;;;;;7.13;5.27;;;;;;;;;;6174993;28;20673;-69
2022/05/03 02:23:12;;;;;;;5.90;4.50;;;;;;;;;;6173760;28;20616;-69
2022/05/03 02:26:37;;;;;;;6.40;5.90;;;;;;;;;;6171241;28;20623;-69
2022/05/03 02:29:58;;;;;;;6.20;5.70;;;;;;;;;;6175994;28;20230;-68
2022/05/03 02:33:20;;;;;;;5.40;4.80;;;;;;;;;;6174207;28;20237;-69
2022/05/03 02:36:43;;;;;;;5.83;5.33;;;;;;;;;;6173889;28;20237;-69
2022/05/03 02:40:07;;;;;;;4.97;4.47;;;;;;;;;;6171471;28;20234;-68
2022/05/03 02:43:30;;;;;;;6.57;5.97;;;;;;;;;;6176691;28;20245;-69
2022/05/03 02:46:57;;;;;;;7.20;5.50;;;;;;;;;;6176251;28;20246;-69
2022/05/03 02:50:18;;;;;;;4.33;4.00;;;;;;;;;;6176025;28;20226;-69
2022/05/03 02:53:43;;;;;;;6.13;5.47;;;;;;;;;;6175323;28;20325;-70
2022/05/03 02:57:08;;;;;;;3.83;3.53;;;;;;;;;;6172592;28;20234;-69
2022/05/03 03:04:12;;;;;;;4.70;4.30;;;;;;;;;;6170965;28;20242;-69
2022/05/03 03:07:36;;;;;;;4.67;4.20;;;;;;;;;;6174997;28;20925;-69
2022/05/03 03:11:01;;;;;;;5.43;4.93;;;;;;;;;;6172899;28;20234;-69
2022/05/03 03:14:29;;;;;;;8.93;8.10;;;;;;;;;;6149153;28;20419;-69
2022/05/03 03:17:50;;;;;;;5.10;4.60;;;;;;;;;;6174347;28;20346;-70
2022/05/03 03:21:12;;;;;;;4.90;4.50;;;;;;;;;;6176068;28;20234;-69
2022/05/03 03:24:35;;;;;;;5.13;4.73;;;;;;;;;;6178294;28;20226;-68
2022/05/03 03:27:57;;;;;;;8.40;5.73;;;;;;;;;;6174848;28;20226;-69
2022/05/03 03:31:20;;;;;;;6.17;5.57;;;;;;;;;;6168032;28;20242;-69
2022/05/03 03:34:42;;;;;;;5.27;4.77;;;;;;;;;;6182502;28;20225;-68
2022/05/03 03:38:03;;;;;;;7.13;6.50;;;;;;;;;;6178374;28;20454;-69
2022/05/03 03:41:24;;;;;;;6.50;5.87;;;;;;;;;;6173805;28;20249;-70
2022/05/03 03:44:45;;;;;;;6.97;6.10;;;;;;;;;;6175505;28;20237;-70
2022/05/03 03:48:08;;;;;;;6.30;5.70;;;;;;;;;;6178545;28;20237;-69
2022/05/03 03:51:29;;;;;;;6.10;5.60;;;;;;;;;;6174439;28;20602;-68
2022/05/03 03:54:50;;;;;;;7.87;7.17;;;;;;;;;;6177272;28;20222;-68
2022/05/03 03:58:10;;;;;;;7.23;6.63;;;;;;;;;;6171657;28;20254;-69
2022/05/03 04:01:31;;;;;;;7.73;7.03;;;;;;;;;;6171586;28;20230;-69
2022/05/03 04:04:54;;;;;;;6.87;6.27;;;;;;;;;;6177984;28;20616;-69
2022/05/03 04:08:14;;;;;;;8.17;7.03;;;;;;;;;;6172380;28;20710;-69
2022/05/03 04:11:42;;;;;;;7.67;7.00;;;;;;;;;;6172027;28;20226;-68
2022/05/03 04:15:03;;;;;;;8.50;7.63;;;;;;;;;;6175234;28;20220;-69
2022/05/03 04:18:44;;;;;;;7.27;6.53;;;;;;;;;;6174849;28;20655;-69
2022/05/03 04:22:20;;;;;;;7.00;6.40;;;;;;;;;;6174749;28;20233;-69
2022/05/03 04:25:40;;;;;;;8.17;7.10;;;;;;;;;;6174750;28;20324;-68
2022/05/03 04:29:01;;;;;;;7.17;6.47;;;;;;;;;;6173332;28;20678;-68
2022/05/03 04:32:22;;;;;;;7.33;6.70;;;;;;;;;;6172143;28;20233;-71
2022/05/03 04:35:42;;;;;;;9.03;6.93;;;;;;;;;;6171379;28;20229;-70
2022/05/03 04:39:04;;;;;;;6.90;6.10;;;;;;;;;;6174643;28;20313;-69
2022/05/03 04:42:25;;;;;;;6.67;6.07;;;;;;;;;;6169538;28;20234;-71
2022/05/03 04:45:46;;;;;;;6.80;6.13;;;;;;;;;;6173621;28;20229;-68
2022/05/03 04:49:06;;;;;;;8.63;7.83;;;;;;;;;;6181824;28;20226;-68
2022/05/03 04:52:27;;;;;;;8.33;7.50;;;;;;;;;;6175524;28;20234;-69
2022/05/03 04:55:49;;;;;;;8.67;7.87;;;;;;;;;;6177600;28;20711;-68
2022/05/03 04:59:09;;;;;;;8.60;7.80;;;;;;;;;;6178835;28;20226;-69
2022/05/03 05:02:30;;;;;;;7.87;7.07;;;;;;;;;;6168323;28;20249;-68
2022/05/03 05:05:50;;;;;;;12.23;7.13;;;;;;;;;;6181256;28;20261;-69
2022/05/03 05:09:11;;;;;;;7.83;7.13;;;;;;;;;;6178230;28;20611;-70
2022/05/03 05:12:33;;;;;;;9.20;8.03;;;;;;;;;;6175393;28;20230;-68
2022/05/03 05:15:53;;;;;;;9.07;8.33;;;;;;;;;;6176248;28;20238;-68
2022/05/03 05:19:13;;;;;;;8.70;7.97;;;;;;;;;;6173662;28;20532;-70
2022/05/03 05:22:34;;;;;;;9.80;8.80;;;;;;;;;;6171691;28;20233;-70
2022/05/03 05:25:55;;;;;;;9.23;8.10;;;;;;;;;;6170683;28;20316;-69
2022/05/03 05:29:17;;;;;;;10.73;9.70;;;;;;;;;;6172863;28;20229;-67
2022/05/03 05:32:38;;;;;;;9.93;9.23;;;;;;;;;;6165835;28;20258;-68
2022/05/03 05:35:59;;;;;;;10.00;8.97;;;;;;;;;;6176635;28;20253;-71
2022/05/03 05:39:19;;;;;;;10.57;9.40;;;;;;;;;;6174834;28;20218;-71
2022/05/03 05:42:42;;;;;;;10.73;9.73;;;;;;;;;;6172740;28;20238;-70
2022/05/03 05:46:04;;;;;;;10.17;9.27;;;;;;;;;;6181402;28;20226;-70
2022/05/03 05:49:24;;;;;;;11.00;9.93;;;;;;;;;;6164791;28;20250;-71
2022/05/03 05:56:23;;;;;;;11.37;10.27;;;;;;;;;;6172970;28;21608;-69
2022/05/03 05:59:44;;;;;;;10.87;9.77;;;;;;;;;;6169184;28;20237;-69
2022/05/03 06:03:06;;;;;;;11.70;10.30;;;;;;;;;;6176181;28;20603;-70
2022/05/03 06:06:26;;;;;;;11.90;10.77;;;;;;;;;;6174752;28;20233;-69
2022/05/03 06:09:47;;;;;;;12.47;11.13;;;;;;;;;;6181822;28;20233;-71
2022/05/03 06:13:08;;;;;;;13.27;11.63;;;;;;;;;;6176022;28;20624;-70
2022/05/03 06:16:28;;;;;;;14.00;12.07;;;;;;;;;;6168886;28;20240;-68
2022/05/03 06:19:51;;;;;;;13.70;12.37;;;;;;;;;;6180893;28;20230;-71
2022/05/03 06:23:11;;;;;;;13.17;11.83;;;;;;;;;;6180815;28;20589;-70
2022/05/03 06:26:32;;;;;;;16.60;11.63;;;;;;;;;;6176061;28;20234;-69
2022/05/03 06:29:52;;;;;;;13.83;12.37;;;;;;;;;;6178434;28;20238;-68
2022/05/03 06:33:13;;;;;;;13.53;12.23;;;;;;;;;;6184509;28;20302;-71
2022/05/03 06:36:36;;;;;;;13.87;12.57;;;;;;;;;;6178691;28;20231;-70
2022/05/03 06:39:56;;;;;;;14.17;12.53;;;;;;;;;;6178582;28;20591;-68
2022/05/03 06:43:17;;;;;;;13.57;12.17;;;;;;;;;;6176509;28;20512;-70
2022/05/03 06:46:38;;;;;;;13.43;12.10;;;;;;;;;;6177536;28;20352;-69
2022/05/03 06:49:58;;;;;;;13.50;12.07;;;;;;;;;;6177369;28;20600;-71
2022/05/03 06:53:21;;;;;;;13.57;11.83;;;;;;;;;;6174056;28;20233;-71
2022/05/03 06:56:41;;;;;;;15.27;13.30;;;;;;;;;;6176636;28;20226;-69
2022/05/03 07:00:05;;;;;;;14.00;12.70;;;;;;;;;;6170685;28;20233;-70
2022/05/03 07:03:25;;;;;;;13.33;12.00;;;;;;;;;;6175605;28;20241;-68
2022/05/03 07:06:46;;;;;;;12.60;11.33;;;;;;;;;;6177188;28;20241;-69
2022/05/03 07:10:09;;;;;;;13.23;11.90;;;;;;;;;;6184521;28;20226;-68
2022/05/03 07:13:29;;;;;;;15.40;12.23;;;;;;;;;;6184766;28;20230;-73
2022/05/03 07:16:50;;;;;;;19.37;14.77;;;;;;;;;;6183618;28;20233;-70
2022/05/03 07:23:49;;;;;;;16.93;14.97;;;;;;;;;;6180047;28;20256;-69
2022/05/03 07:27:13;;;;;;;14.33;12.93;;;;;;;;;;6182479;28;20320;-70
2022/05/03 07:30:34;;;;;;;18.40;14.43;;;;;;;;;;6176046;28;20324;-69
2022/05/03 07:33:55;;;;;;;18.70;13.13;;;;;;;;;;6179518;28;20233;-69
2022/05/03 07:37:16;;;;;;;17.40;15.63;;;;;;;;;;6180469;28;20233;-69
2022/05/03 07:40:36;;;;;;;15.87;12.67;;;;;;;;;;6177042;28;20528;-68
2022/05/03 07:43:58;;;;;;;14.57;13.07;;;;;;;;;;6165970;28;20234;-67
2022/05/03 07:47:18;;;;;;;17.40;13.87;;;;;;;;;;6167898;28;20241;-69
2022/05/03 07:50:39;;;;;;;16.87;14.03;;;;;;;;;;6176938;28;21117;-68
2022/05/03 07:54:00;;;;;;;17.53;14.37;;;;;;;;;;6177587;28;20226;-69
2022/05/03 07:57:20;;;;;;;14.60;13.10;;;;;;;;;;6178684;28;22339;-72
2022/05/03 08:00:42;;;;;;;17.70;14.87;;;;;;;;;;6176398;28;20226;-70
2022/05/03 08:04:03;;;;;;;15.43;13.93;;;;;;;;;;6179261;28;20234;-69
2022/05/03 08:07:23;;;;;;;15.10;11.83;;;;;;;;;;6169600;28;20874;-70
2022/05/03 08:10:45;;;;;;;15.30;13.70;;;;;;;;;;6174708;28;20264;-68
2022/05/03 08:14:05;;;;;;;15.03;12.67;;;;;;;;;;6173430;28;20573;-67
2022/05/03 08:17:28;;;;;;;16.30;12.83;;;;;;;;;;6180422;28;20643;-69
2022/05/03 08:20:48;;;;;;;20.40;14.43;;;;;;;;;;6180448;28;20234;-68
2022/05/03 08:24:09;;;;;;;14.50;12.43;;;;;;;;;;6185793;28;20245;-68
2022/05/03 08:27:30;;;;;;;12.73;11.33;;;;;;;;;;6184009;28;20245;-66
2022/05/03 08:30:51;;;;;;;13.57;12.30;;;;;;;;;;6184951;28;20638;-68
2022/05/03 08:34:13;;;;;;;14.10;12.67;;;;;;;;;;6181881;28;20229;-66
2022/05/03 08:44:50;;;;;;;14.73;11.77;;;;;;;;;;6182040;28;20383;-69
2022/05/03 08:48:11;;;;;;;14.00;11.87;;;;;;;;;;6184496;28;20325;-68
2022/05/03 08:51:33;;;;;;;12.43;11.23;;;;;;;;;;6183276;28;20237;-69
2022/05/03 08:54:54;;;;;;;12.83;11.40;;;;;;;;;;6188739;28;20253;-68
2022/05/03 08:58:15;;;;;;;11.53;10.30;;;;;;;;;;6186389;28;20344;-69
2022/05/03 09:01:36;;;;;;;12.17;10.00;;;;;;;;;;6191568;28;20233;-67
2022/05/03 09:04:56;;;;;;;12.13;10.03;;;;;;;;;;6182354;28;20238;-69
2022/05/03 09:08:23;;;;;;;11.60;9.80;;;;;;;;;;6183966;28;20242;-69
2022/05/03 09:11:44;;;;;;;10.63;9.53;;;;;;;;;;6183388;28;20281;-68
2022/05/03 09:15:05;;;;;;;11.20;9.70;;;;;;;;;;6191365;28;20635;-70
2022/05/03 09:18:27;;;;;;;11.20;8.20;;;;;;;;;;6185859;28;20246;-70
2022/05/03 09:25:29;;;;;;;9.83;6.67;;;;;;;;;;6190467;28;20218;-67
2022/05/03 09:28:50;;;;;;;10.70;7.60;;;;;;;;;;6184512;28;20234;-68
2022/05/03 09:32:10;;;;;;;8.17;7.37;;;;;;;;;;6185106;28;20229;-67
2022/05/03 09:35:32;;;;;;;8.40;7.53;;;;;;;;;;6181719;28;21355;-70
2022/05/03 09:38:54;;;;;;;8.97;7.07;;;;;;;;;;6182369;28;20238;-67
2022/05/03 09:42:17;;;;;;;11.30;6.40;;;;;;;;;;6183240;28;20235;-70
2022/05/03 09:45:38;;;;;;;6.77;5.77;;;;;;;;;;6176138;28;20256;-68
2022/05/03 09:49:00;;;;;;;11.97;5.80;;;;;;;;;;6174361;28;20272;-68
2022/05/03 09:52:27;;;;;;;15.90;5.43;;;;;;;;;;6174322;28;20241;-68
2022/05/03 09:55:48;;;;;;;6.87;4.10;;;;;;;;;;6184857;28;20226;-68
2022/05/03 09:59:10;;;;;;;8.33;4.83;;;;;;;;;;6175263;28;20242;-68
2022/05/03 10:02:32;;;;;;;6.97;4.97;;;;;;;;;;6181804;28;20234;-68
2022/05/03 10:05:52;;;;;;;8.87;4.40;;;;;;;;;;6182631;28;20234;-65
2022/05/03 10:09:13;;;;;;;7.00;4.27;;;;;;;;;;6183381;28;20238;-66
2022/05/03 10:12:35;;;;;;;4.97;3.93;;;;;;;;;;6179862;28;20370;-67
2022/05/03 10:23:23;;;;;;;4.40;3.07;;;;;;;;;;6174210;28;20230;-70
2022/05/03 10:27:02;;;;;;;6.40;2.97;;;;;;;;;;6168686;28;20241;-66
2022/05/03 10:30:23;;;;;;;4.80;2.93;;;;;;;;;;6177585;28;20249;-68
2022/05/03 10:33:45;;;;;;;7.67;2.57;;;;;;;;;;6179620;28;20238;-69
2022/05/03 10:37:06;;;;;;;5.77;3.00;;;;;;;;;;6188837;28;20233;-70
2022/05/03 10:40:30;;;;;;;3.63;2.60;;;;;;;;;;6182386;28;20237;-70
2022/05/03 10:43:50;;;;;;;7.97;3.77;;;;;;;;;;6181868;28;20229;-71
2022/05/03 10:47:12;;;;;;;4.87;3.50;;;;;;;;;;6177393;28;20612;-70
2022/05/03 10:50:36;;;;;;;7.27;2.87;;;;;;;;;;6176474;28;20257;-68
2022/05/03 10:53:58;;;;;;;8.90;3.10;;;;;;;;;;6179944;28;20226;-69
2022/05/03 10:57:19;;;;;;;5.83;2.23;;;;;;;;;;6179294;28;20462;-68
2022/05/03 11:00:59;;;;;;;4.03;2.00;;;;;;;;;;6170054;28;20233;-72
2022/05/03 11:04:20;;;;;;;3.70;2.13;;;;;;;;;;6179007;28;20242;-74
2022/05/03 11:07:42;;;;;;;5.50;2.83;;;;;;;;;;6175940;28;20241;-72
2022/05/03 11:11:02;;;;;;;6.53;2.83;;;;;;;;;;6182169;28;22716;-74
2022/05/03 11:14:41;;;;;;;5.70;2.30;;;;;;;;;;6180922;28;20238;-71
2022/05/03 11:18:02;;;;;;;4.97;2.83;;;;;;;;;;6171631;28;20222;-74
2022/05/03 11:21:23;;;;;;;7.23;2.00;;;;;;;;;;6178763;28;20233;-73
2022/05/03 11:24:46;;;;;;;6.70;3.30;;;;;;;;;;6180980;28;20233;-73
2022/05/03 11:28:08;;;;;;;8.20;2.77;;;;;;;;;;6180700;28;20257;-72
2022/05/03 11:31:29;;;;;;;6.47;2.77;;;;;;;;;;6171457;28;20226;-73
2022/05/03 11:34:49;;;;;;;7.37;3.07;;;;;;;;;;6168929;28;20273;-72
2022/05/03 11:38:11;;;;;;;5.27;2.23;;;;;;;;;;6179182;28;20237;-71
2022/05/03 11:41:33;;;;;;;8.70;3.10;;;;;;;;;;6175001;28;20222;-72
2022/05/03 11:44:54;;;;;;;8.37;2.67;;;;;;;;;;6185033;28;20234;-78
2022/05/03 11:48:14;;;;;;;6.30;2.90;;;;;;;;;;6176789;28;20238;-72
2022/05/03 11:58:55;;;;;;;5.73;2.20;;;;;;;;;;6165439;28;20226;-69
2022/05/03 12:02:17;;;;;;;4.90;2.50;;;;;;;;;;6168336;28;20241;-71
2022/05/03 12:05:39;;;;;;;4.67;2.33;;;;;;;;;;6171998;28;20245;-68
2022/05/03 12:08:59;;;;;;;5.20;2.47;;;;;;;;;;6168010;28;20233;-68
2022/05/03 12:16:17;;;;;;;4.87;1.80;;;;;;;;;;6176118;28;20242;-70
2022/05/03 12:19:38;;;;;;;6.25;3.17;;;;;;;;;;6166627;28;20234;-69
2022/05/03 12:23:13;;;;;;;9.07;2.53;;;;;;;;;;6169385;28;20261;-68
2022/05/03 12:26:35;;;;;;;6.00;2.50;;;;;;;;;;6170697;28;20226;-70
2022/05/03 12:30:09;;;;;;;5.72;2.40;;;;;;;;;;6170350;28;20583;-70
2022/05/03 12:33:31;;;;;;;6.80;2.60;;;;;;;;;;6177899;28;20316;-69
2022/05/03 12:37:01;;;;;;;8.48;4.00;;;;;;;;;;6168573;28;20755;-69
2022/05/03 12:40:26;;;;;;;6.05;2.53;;;;;;;;;;6167184;28;20233;-66
2022/05/03 12:43:58;;;;;;;4.93;3.10;;;;;;;;;;6172794;28;20234;-66
2022/05/03 12:47:19;;;;;;;5.97;2.20;;;;;;;;;;6165167;28;20233;-68
2022/05/03 12:50:41;;;;;;;5.43;2.72;;;;;;;;;;6172570;28;20241;-69
2022/05/03 12:54:03;;;;;;;6.40;2.80;;;;;;;;;;6173926;28;20223;-72
2022/05/03 13:01:03;;;;;;;7.00;2.13;;;;;;;;;;6173537;28;20621;-74
2022/05/03 13:04:24;;;;;;;3.80;2.20;;;;;;;;;;6180722;28;20234;-78
2022/05/03 13:07:46;;;;;;;8.70;3.28;;;;;;;;;;6178885;28;20242;-78
2022/05/03 13:11:07;;;;;;;6.85;2.15;;;;;;;;;;6184441;28;20238;-78
2022/05/03 13:14:29;;;;;;;6.45;2.78;;;;;;;;;;6181063;28;20265;-68
2022/05/03 13:17:49;;;;;;;8.63;2.78;;;;;;;;;;6179359;28;20249;-68
2022/05/03 13:21:10;;;;;;;5.40;2.50;;;;;;;;;;6184484;28;20242;-67
2022/05/03 13:24:32;;;;;;;6.22;2.38;;;;;;;;;;6182764;28;20321;-68
2022/05/03 13:27:54;;;;;;;7.25;3.05;;;;;;;;;;6179092;28;20237;-71
2022/05/03 13:31:14;;;;;;;8.02;2.53;;;;;;;;;;6180525;28;20372;-69
2022/05/03 13:34:35;;;;;;;11.35;3.17;;;;;;;;;;6179326;28;20631;-68
2022/05/03 13:41:35;;;;;;;6.03;2.75;;;;;;;;;;6180651;28;20610;-69
2022/05/03 13:44:55;;;;;;;6.47;2.47;;;;;;;;;;6185698;28;20237;-69
2022/05/03 13:48:16;;;;;;;8.48;2.15;;;;;;;;;;6178592;28;20623;-69
2022/05/03 13:51:36;;;;;;;7.25;2.53;;;;;;;;;;6180628;28;20829;-67
2022/05/03 13:54:57;;;;;;;9.60;2.90;;;;;;;;;;6187925;28;20230;-68
2022/05/03 13:58:20;;;;;;;5.65;2.33;;;;;;;;;;6179985;28;20987;-69
2022/05/03 14:01:41;;;;;;;8.27;2.85;;;;;;;;;;6180411;28;20605;-68
2022/05/03 14:05:01;;;;;;;5.00;2.53;;;;;;;;;;6181883;28;20237;-68
2022/05/03 14:08:22;;;;;;;6.90;2.35;;;;;;;;;;6171133;28;20239;-66
2022/05/03 14:11:43;;;;;;;7.45;3.30;;;;;;;;;;6174543;28;20377;-68
2022/05/03 14:15:05;;;;;;;7.05;2.53;;;;;;;;;;6167890;28;20273;-68
2022/05/03 14:18:26;;;;;;;8.60;2.65;;;;;;;;;;6171193;28;20245;-66
2022/05/03 14:21:48;;;;;;;7.15;1.95;;;;;;;;;;6174911;28;20242;-68
2022/05/03 14:25:10;;;;;;;7.20;2.10;;;;;;;;;;6185848;28;20229;-67
2022/05/03 14:28:32;;;;;;;5.05;2.30;;;;;;;;;;6182023;28;20230;-69
2022/05/03 14:31:54;;;;;;;9.02;3.10;;;;;;;;;;6182085;28;20320;-66
2022/05/03 14:35:16;;;;;;;4.25;2.28;;;;;;;;;;6182791;28;20623;-68
2022/05/03 14:38:36;;;;;;;4.50;2.47;;;;;;;;;;6185493;28;20233;-68
2022/05/03 14:41:57;;;;;;;6.57;2.30;;;;;;;;;;6175092;28;20261;-66
2022/05/03 14:45:18;;;;;;;8.52;3.08;;;;;;;;;;6182941;28;20538;-67
2022/05/03 14:48:40;;;;;;;4.60;2.95;;;;;;;;;;6179407;28;20229;-67
2022/05/03 14:52:05;;;;;;;6.72;2.45;;;;;;;;;;6178966;28;20234;-67
2022/05/03 14:55:26;;;;;;;8.90;2.80;;;;;;;;;;6180542;28;20238;-67
2022/05/03 15:06:05;;;;;;;4.70;2.30;;;;;;;;;;6179163;28;20233;-67
2022/05/03 15:09:26;;;;;;;6.20;2.30;;;;;;;;;;6180594;28;20230;-66
2022/05/03 15:12:46;;;;;;;5.00;2.65;;;;;;;;;;6182207;28;20266;-67
2022/05/03 15:16:07;;;;;;;6.43;2.53;;;;;;;;;;6181156;28;20233;-67
2022/05/03 15:19:27;;;;;;;7.35;2.35;;;;;;;;;;6172988;28;20226;-67
2022/05/03 15:26:27;;;;;;;6.80;3.13;;;;;;;;;;6183605;28;20238;-66
2022/05/03 15:29:48;;;;;;;5.53;2.30;;;;;;;;;;6179128;28;20234;-65
2022/05/03 15:33:09;;;;;;;9.27;3.00;;;;;;;;;;6172440;28;20257;-65
2022/05/03 15:36:29;;;;;;;5.05;2.47;;;;;;;;;;6172564;28;20218;-65
2022/05/03 15:39:53;;;;;;;8.35;3.55;;;;;;;;;;6178633;28;20230;-67
2022/05/03 15:43:13;;;;;;;7.03;3.45;;;;;;;;;;6176245;28;20238;-68
2022/05/03 15:46:34;;;;;;;7.43;2.20;;;;;;;;;;6177093;28;20260;-67
2022/05/03 15:49:57;;;;;;;6.28;2.38;;;;;;;;;;6181438;28;20663;-67
2022/05/03 15:53:22;;;;;;;6.57;2.47;;;;;;;;;;6178979;28;20223;-66
2022/05/03 15:56:44;;;;;;;6.38;2.58;;;;;;;;;;6177391;28;22230;-67
2022/05/03 16:00:05;;;;;;;6.55;2.47;;;;;;;;;;6172579;28;20222;-66
2022/05/03 16:03:27;;;;;;;6.90;3.58;;;;;;;;;;6167596;28;20258;-67
2022/05/03 16:06:48;;;;;;;6.20;2.45;;;;;;;;;;6173155;28;20234;-67
2022/05/03 16:10:09;;;;;;;4.15;2.17;;;;;;;;;;6175909;28;20250;-67
2022/05/03 16:13:31;;;;;;;7.25;2.45;;;;;;;;;;6181611;28;20222;-67
2022/05/03 16:16:52;;;;;;;5.47;2.15;;;;;;;;;;6174475;28;20234;-67
2022/05/03 16:20:13;;;;;;;7.10;1.77;;;;;;;;;;6174740;28;20242;-67
2022/05/03 16:23:34;;;;;;;10.02;3.47;;;;;;;;;;6176007;28;20229;-67
2022/05/03 16:26:54;;;;;;;6.72;2.38;;;;;;;;;;6178732;28;20269;-66
2022/05/03 16:30:16;;;;;;;5.15;2.60;;;;;;;;;;6176531;28;20329;-67
2022/05/03 16:33:37;;;;;;;4.15;1.75;;;;;;;;;;6166050;28;20324;-67
2022/05/03 16:44:14;;;;;;;4.45;2.63;;;;;;;;;;6183953;28;20252;-67
2022/05/03 16:47:36;;;;;;;6.25;2.70;;;;;;;;;;6182377;28;20496;-67
2022/05/03 16:50:56;;;;;;;9.10;2.90;;;;;;;;;;6171551;28;20351;-66
2022/05/03 16:54:17;;;;;;;8.88;2.50;;;;;;;;;;6176833;28;20348;-68
2022/05/03 16:57:37;;;;;;;5.03;2.97;;;;;;;;;;6177552;28;21000;-66
2022/05/03 17:00:58;;;;;;;8.98;5.03;;;;;;;;;;6170069;28;20226;-66
2022/05/03 17:04:20;;;;;;;8.63;3.45;;;;;;;;;;6173846;28;20237;-66
2022/05/03 17:07:41;;;;;;;7.05;3.47;;;;;;;;;;6179928;28;20238;-66
2022/05/03 17:11:02;;;;;;;10.00;3.95;;;;;;;;;;6174954;28;20229;-67
2022/05/03 17:14:22;;;;;;;7.20;3.00;;;;;;;;;;6186357;28;20226;-69
2022/05/03 17:17:42;;;;;;;7.20;3.63;;;;;;;;;;6182975;28;20230;-69
2022/05/03 17:21:05;;;;;;;6.63;3.27;;;;;;;;;;6177820;28;20230;-68
2022/05/03 17:24:26;;;;;;;6.00;2.60;;;;;;;;;;6150203;28;20620;-69
2022/05/03 17:27:46;;;;;;;8.40;3.23;;;;;;;;;;6178340;28;21936;-69
2022/05/03 17:31:07;;;;;;;11.40;4.57;;;;;;;;;;6176286;28;20253;-69
2022/05/03 17:34:28;;;;;;;7.17;2.57;;;;;;;;;;6177060;28;20249;-68
2022/05/03 17:37:50;;;;;;;8.20;3.20;;;;;;;;;;6177947;28;20233;-68
2022/05/03 17:41:11;;;;;;;5.57;3.20;;;;;;;;;;6175976;28;20242;-68
2022/05/03 17:44:32;;;;;;;7.37;2.67;;;;;;;;;;6172874;28;20226;-67
2022/05/03 17:47:52;;;;;;;8.13;3.30;;;;;;;;;;6165331;28;20237;-66
2022/05/03 17:51:13;;;;;;;9.17;3.33;;;;;;;;;;6180390;28;20238;-66
2022/05/03 17:54:34;;;;;;;5.70;2.57;;;;;;;;;;6178909;28;20229;-69
2022/05/03 17:57:54;;;;;;;6.97;2.90;;;;;;;;;;6182218;28;20592;-67
2022/05/03 18:01:15;;;;;;;7.10;2.50;;;;;;;;;;6181153;28;20229;-68
2022/05/03 18:04:36;;;;;;;9.67;2.87;;;;;;;;;;6172994;28;20230;-66
2022/05/03 18:07:56;;;;;;;5.77;2.47;;;;;;;;;;6181272;28;20245;-67
2022/05/03 18:11:18;;;;;;;5.63;2.77;;;;;;;;;;6180726;28;20265;-67
2022/05/03 18:14:39;;;;;;;6.67;3.17;;;;;;;;;;6179961;28;20238;-67
2022/05/03 18:18:00;;;;;;;9.73;2.50;;;;;;;;;;6176699;28;20230;-67
2022/05/03 18:21:20;;;;;;;5.80;2.30;;;;;;;;;;6176976;28;20234;-66
2022/05/03 18:24:41;;;;;;;8.30;3.07;;;;;;;;;;6176897;28;20590;-67
2022/05/03 18:28:03;;;;;;;7.57;3.30;;;;;;;;;;6165968;28;20230;-67
2022/05/03 18:31:25;;;;;;;7.07;2.40;;;;;;;;;;6171977;28;20238;-69
2022/05/03 18:34:46;;;;;;;15.70;3.33;;;;;;;;;;6166716;28;20266;-69
2022/05/03 18:38:07;;;;;;;7.87;2.70;;;;;;;;;;6166552;28;20230;-67
2022/05/03 18:41:28;;;;;;;6.80;2.47;;;;;;;;;;6173298;28;20275;-65
2022/05/03 18:44:49;;;;;;;7.73;3.27;;;;;;;;;;6162594;28;20237;-67
2022/05/03 18:48:11;;;;;;;8.13;2.90;;;;;;;;;;6174198;28;20226;-66
2022/05/03 18:51:31;;;;;;;7.77;2.40;;;;;;;;;;6170353;28;20242;-66
2022/05/03 18:58:32;;;;;;;10.10;4.10;;;;;;;;;;6163309;28;20238;-70
2022/05/03 19:01:54;;;;;;;9.03;3.87;;;;;;;;;;6170113;28;20750;-70
2022/05/03 19:05:15;;;;;;;7.13;3.53;;;;;;;;;;6178953;28;20244;-71
2022/05/03 19:08:36;;;;;;;5.63;2.57;;;;;;;;;;6168720;28;20751;-70
2022/05/03 19:11:56;;;;;;;16.40;4.20;;;;;;;;;;6175535;28;20341;-68
2022/05/03 19:15:18;;;;;;;8.93;2.97;;;;;;;;;;6167018;28;20316;-71
2022/05/03 19:18:40;;;;;;;6.20;2.73;;;;;;;;;;6166203;28;20242;-69
2022/05/03 19:22:01;;;;;;;9.30;2.53;;;;;;;;;;6174299;28;20553;-68
2022/05/03 19:32:39;;;;;;;10.27;3.63;;;;;;;;;;6165282;28;20241;-68
2022/05/03 19:36:01;;;;;;;5.80;2.80;;;;;;;;;;6167363;28;20237;-68
2022/05/03 19:39:22;;;;;;;8.07;2.47;;;;;;;;;;6174337;28;20309;-68
2022/05/03 19:42:42;;;;;;;7.70;2.97;;;;;;;;;;6170381;28;20249;-68
2022/05/03 19:46:03;;;;;;;10.47;3.27;;;;;;;;;;6153526;28;20222;-68
2022/05/03 19:49:24;;;;;;;6.43;2.83;;;;;;;;;;6160778;28;20655;-68
2022/05/03 19:52:46;;;;;;;8.23;2.83;;;;;;;;;;6171282;28;20982;-68
2022/05/03 19:56:07;;;;;;;9.50;3.40;;;;;;;;;;6174995;28;20230;-68
2022/05/03 19:59:27;;;;;;;11.37;3.57;;;;;;;;;;6134850;28;20754;-67
2022/05/03 20:02:49;;;;;;;8.77;2.97;;;;;;;;;;6161046;28;20504;-67
2022/05/03 20:06:09;;;;;;;5.40;2.93;;;;;;;;;;6174300;28;20234;-67
2022/05/03 20:09:31;;;;;;;7.07;2.80;;;;;;;;;;6178494;28;20264;-67
2022/05/03 20:12:52;;;;;;;10.33;3.23;;;;;;;;;;6171174;28;20249;-67
2022/05/03 20:16:13;;;;;;;7.47;2.60;;;;;;;;;;6179095;28;20230;-65
2022/05/03 20:19:33;;;;;;;13.27;4.37;;;;;;;;;;6177415;28;20230;-67
2022/05/03 20:22:54;;;;;;;7.47;3.40;;;;;;;;;;6171874;28;20241;-66
2022/05/03 20:26:15;;;;;;;8.40;3.17;;;;;;;;;;6177916;28;20577;-67
2022/05/03 20:29:36;;;;;;;5.67;2.67;;;;;;;;;;6170867;28;20234;-66
2022/05/03 20:32:57;;;;;;;5.47;3.17;;;;;;;;;;6167181;28;20233;-68
2022/05/03 20:36:19;;;;;;;10.33;2.93;;;;;;;;;;6180311;28;20226;-67
2022/05/03 20:39:40;;;;;;;10.03;3.83;;;;;;;;;;6173903;28;20313;-67
2022/05/03 20:43:02;;;;;;;7.80;2.83;;;;;;;;;;6173879;28;20615;-66
2022/05/03 20:50:01;;;;;;;7.43;2.50;;;;;;;;;;6171477;28;20229;-67
2022/05/03 20:53:23;;;;;;;8.93;3.30;;;;;;;;;;6176058;28;20238;-66
2022/05/03 20:56:44;;;;;;;11.33;3.37;;;;;;;;;;6179530;28;20629;-65
2022/05/03 21:00:07;;;;;;;8.63;2.30;;;;;;;;;;6167720;28;20234;-67
2022/05/03 21:03:27;;;;;;;7.73;3.03;;;;;;;;;;6173892;28;20238;-67
2022/05/03 21:06:48;;;;;;;12.87;4.40;;;;;;;;;;6174768;28;20229;-68
2022/05/03 21:10:09;;;;;;;11.67;4.23;;;;;;;;;;6158894;28;20626;-67
2022/05/03 21:13:29;;;;;;;8.40;2.67;;;;;;;;;;6173198;28;20226;-67
2022/05/03 21:16:51;;;;;;;6.97;2.67;;;;;;;;;;6178104;28;20325;-67
2022/05/03 21:20:12;;;;;;;9.10;3.13;;;;;;;;;;6173375;28;20226;-67
2022/05/03 21:23:33;;;;;;;9.23;3.83;;;;;;;;;;6177846;28;20616;-67
2022/05/03 21:26:53;;;;;;;7.73;2.13;;;;;;;;;;6174974;28;20862;-67